Terminal Aerodrome Forecast
Issued by NWS

Home | Current Version | Previous Version | Text Only | Print | Product List | Glossary On
Versions: 1 2 3 4 5 6 7 8 9 10 11 12 13 14 15 16 17
000
FTAK31 PAJN 311400 AAA
TAFAGY
TAF AMD
PAGY 311434Z 3115/0112 04003KT P6SM OVC023
     FM311800 VRB04KT P6SM SCT023 SCT120
     FM312000 21008KT P6SM SCT150
     FM312300 21012G22KT P6SM SCT120
     FM010300 21006KT P6SM FEW120
     FM010600 00000KT P6SM VCFG FEW120
      AMD LTD TO CLD VIS AND WIND=

USA.gov is the U.S. government's official web portal to all federal, state and local government web resources and services.